首页
METAR-TAF:

METAR-TAF

机场 :

Tyndall Air Force Base

Panama City, 佛罗里达州, 美国

纬度: 30-04N, 经度: 085-35W, 海拔: 5米

当前天气观测

该预报发布于54分钟前的06:56 UTC
风速4节,风向东转东北
温度 12°C
湿度 62%
气压 1022 hPa
能見度: 16.1公里
天空无云

METAR: KPAM 210656Z AUTO 07004KT 10SM CLR 12/05 A3018 RMK AO2 SLP223 T01170049 $

时间: 01:50 (07:50 UTC)

预报

该预报发布于9小时和17分钟前的22:33 UTC
预报有效从20日的 22点(UTC)到 22日的 01点(UTC)
风速6节,风向东转东北
能見度: 2111
少量云层高于25000英尺

TAF: KPAM 202233Z 2022/2201 03012KT 9999 FEW250 QNH3013INS WND 07006KT AFT 2107 TX21/2120Z TN13/2111Z LAST NO AMDS AFT 2023 NEXT 2111

超过4000个机场的气象观测和天气预报(METAR&TAF报告)。

可查询的气象台以黄色和红色小点在地图上表示。

将鼠标移到小点上方,可查看气象台名称。

然后点击查看天气观测和预报。

如需切换地图:点击带黑十字的绿色按钮放大地图;点击带横线的绿色按钮缩小地图;或者点击绿色箭头查看邻近地区的地图。


METAR-TAF: